sensor_id;sensor_type;location;lat;lon;timestamp;P1;durP1;ratioP1;P2;durP2;ratioP2
29384;SDS011;16367;48.736;9.218;2023-05-10T00:01:36;3.20;;;1.00;;
29384;SDS011;16367;48.736;9.218;2023-05-10T00:03:39;4.20;;;1.15;;
29384;SDS011;16367;48.736;9.218;2023-05-10T00:05:42;3.70;;;0.90;;
29384;SDS011;16367;48.736;9.218;2023-05-10T00:07:45;3.22;;;1.13;;
29384;SDS011;16367;48.736;9.218;2023-05-10T00:09:48;2.60;;;1.00;;
29384;SDS011;16367;48.736;9.218;2023-05-10T00:11:50;3.00;;;1.00;;
29384;SDS011;16367;48.736;9.218;2023-05-10T00:13:53;3.15;;;1.00;;
29384;SDS011;16367;48.736;9.218;2023-05-10T00:15:56;3.65;;;1.10;;
29384;SDS011;16367;48.736;9.218;2023-05-10T00:18:00;3.22;;;0.90;;
29384;SDS011;16367;48.736;9.218;2023-05-10T00:20:04;2.40;;;0.60;;
29384;SDS011;16367;48.736;9.218;2023-05-10T00:22:07;2.05;;;0.63;;
29384;SDS011;16367;48.736;9.218;2023-05-10T00:24:10;2.03;;;0.70;;
29384;SDS011;16367;48.736;9.218;2023-05-10T00:26:13;2.53;;;0.77;;
29384;SDS011;16367;48.736;9.218;2023-05-10T00:28:16;2.40;;;0.70;;
29384;SDS011;16367;48.736;9.218;2023-05-10T00:30:19;2.35;;;0.80;;
29384;SDS011;16367;48.736;9.218;2023-05-10T00:32:22;2.38;;;0.70;;
29384;SDS011;16367;48.736;9.218;2023-05-10T00:34:26;2.22;;;0.70;;
29384;SDS011;16367;48.736;9.218;2023-05-10T00:36:29;2.90;;;1.23;;
29384;SDS011;16367;48.736;9.218;2023-05-10T00:38:33;1.45;;;0.55;;
29384;SDS011;16367;48.736;9.218;2023-05-10T00:40:36;1.88;;;0.63;;
29384;SDS011;16367;48.736;9.218;2023-05-10T00:42:39;1.58;;;0.50;;
29384;SDS011;16367;48.736;9.218;2023-05-10T00:44:42;2.10;;;0.50;;
29384;SDS011;16367;48.736;9.218;2023-05-10T00:46:44;1.50;;;0.50;;
29384;SDS011;16367;48.736;9.218;2023-05-10T00:48:47;2.03;;;0.60;;
29384;SDS011;16367;48.736;9.218;2023-05-10T00:50:52;1.27;;;0.50;;
29384;SDS011;16367;48.736;9.218;2023-05-10T00:52:55;1.27;;;0.40;;
29384;SDS011;16367;48.736;9.218;2023-05-10T00:54:58;1.00;;;0.40;;
29384;SDS011;16367;48.736;9.218;2023-05-10T00:57:00;1.50;;;0.50;;
29384;SDS011;16367;48.736;9.218;2023-05-10T00:59:04;1.48;;;0.50;;
29384;SDS011;16367;48.736;9.218;2023-05-10T01:01:07;1.05;;;0.40;;
29384;SDS011;16367;48.736;9.218;2023-05-10T01:03:10;1.23;;;0.40;;
29384;SDS011;16367;48.736;9.218;2023-05-10T01:05:14;1.55;;;0.40;;
29384;SDS011;16367;48.736;9.218;2023-05-10T01:07:18;1.40;;;0.40;;
29384;SDS011;16367;48.736;9.218;2023-05-10T01:12:49;1.50;;;0.30;;
29384;SDS011;16367;48.736;9.218;2023-05-10T01:15:16;1.52;;;0.52;;
29384;SDS011;16367;48.736;9.218;2023-05-10T01:17:20;1.77;;;0.45;;
29384;SDS011;16367;48.736;9.218;2023-05-10T01:19:25;0.75;;;0.30;;
29384;SDS011;16367;48.736;9.218;2023-05-10T01:21:30;1.13;;;0.30;;
29384;SDS011;16367;48.736;9.218;2023-05-10T01:23:49;1.00;;;0.30;;
29384;SDS011;16367;48.736;9.218;2023-05-10T01:30:52;0.32;;;0.20;;
29384;SDS011;16367;48.736;9.218;2023-05-10T01:33:23;1.58;;;0.30;;
29384;SDS011;16367;48.736;9.218;2023-05-10T01:35:31;0.80;;;0.43;;
29384;SDS011;16367;48.736;9.218;2023-05-10T01:37:44;0.75;;;0.30;;
29384;SDS011;16367;48.736;9.218;2023-05-10T01:39:53;1.27;;;0.40;;
29384;SDS011;16367;48.736;9.218;2023-05-10T01:42:01;0.88;;;0.20;;
29384;SDS011;16367;48.736;9.218;2023-05-10T01:44:11;1.67;;;0.50;;
29384;SDS011;16367;48.736;9.218;2023-05-10T01:46:21;1.02;;;0.30;;
29384;SDS011;16367;48.736;9.218;2023-05-10T01:48:31;0.90;;;0.30;;
29384;SDS011;16367;48.736;9.218;2023-05-10T01:50:36;0.98;;;0.40;;
29384;SDS011;16367;48.736;9.218;2023-05-10T01:52:42;1.00;;;0.40;;
29384;SDS011;16367;48.736;9.218;2023-05-10T01:54:49;1.10;;;0.35;;
29384;SDS011;16367;48.736;9.218;2023-05-10T01:56:57;1.98;;;0.40;;
29384;SDS011;16367;48.736;9.218;2023-05-10T01:59:05;1.45;;;0.43;;
29384;SDS011;16367;48.736;9.218;2023-05-10T02:01:12;1.52;;;0.43;;
29384;SDS011;16367;48.736;9.218;2023-05-10T02:03:16;0.63;;;0.20;;
29384;SDS011;16367;48.736;9.218;2023-05-10T02:05:24;1.10;;;0.30;;
29384;SDS011;16367;48.736;9.218;2023-05-10T02:07:28;1.15;;;0.38;;
29384;SDS011;16367;48.736;9.218;2023-05-10T02:09:32;0.98;;;0.50;;
29384;SDS011;16367;48.736;9.218;2023-05-10T02:11:36;3.42;;;0.50;;
29384;SDS011;16367;48.736;9.218;2023-05-10T02:13:40;1.20;;;0.50;;
29384;SDS011;16367;48.736;9.218;2023-05-10T02:15:46;2.63;;;0.57;;
29384;SDS011;16367;48.736;9.218;2023-05-10T02:17:51;1.92;;;0.40;;
29384;SDS011;16367;48.736;9.218;2023-05-10T02:19:56;1.88;;;0.40;;
29384;SDS011;16367;48.736;9.218;2023-05-10T02:22:03;1.60;;;0.45;;
29384;SDS011;16367;48.736;9.218;2023-05-10T02:24:06;2.03;;;0.50;;
29384;SDS011;16367;48.736;9.218;2023-05-10T02:26:10;1.00;;;0.30;;
29384;SDS011;16367;48.736;9.218;2023-05-10T02:28:15;1.52;;;0.50;;
29384;SDS011;16367;48.736;9.218;2023-05-10T02:30:19;1.02;;;0.38;;
29384;SDS011;16367;48.736;9.218;2023-05-10T02:32:24;2.53;;;0.50;;
29384;SDS011;16367;48.736;9.218;2023-05-10T02:34:28;2.13;;;0.30;;
29384;SDS011;16367;48.736;9.218;2023-05-10T02:36:33;2.25;;;0.60;;
29384;SDS011;16367;48.736;9.218;2023-05-10T02:38:38;1.55;;;0.50;;
29384;SDS011;16367;48.736;9.218;2023-05-10T02:40:42;1.85;;;0.50;;
29384;SDS011;16367;48.736;9.218;2023-05-10T02:42:45;0.95;;;0.40;;
29384;SDS011;16367;48.736;9.218;2023-05-10T02:44:52;1.42;;;0.50;;
29384;SDS011;16367;48.736;9.218;2023-05-10T02:46:56;2.30;;;0.50;;
29384;SDS011;16367;48.736;9.218;2023-05-10T02:49:00;3.33;;;0.60;;
29384;SDS011;16367;48.736;9.218;2023-05-10T02:51:04;0.52;;;0.30;;
29384;SDS011;16367;48.736;9.218;2023-05-10T02:53:09;2.35;;;0.60;;
29384;SDS011;16367;48.736;9.218;2023-05-10T02:55:17;0.93;;;0.30;;
29384;SDS011;16367;48.736;9.218;2023-05-10T02:57:25;2.85;;;1.00;;
29384;SDS011;16367;48.736;9.218;2023-05-10T02:59:30;2.30;;;0.70;;
29384;SDS011;16367;48.736;9.218;2023-05-10T03:01:34;4.95;;;1.48;;
29384;SDS011;16367;48.736;9.218;2023-05-10T03:03:37;3.80;;;1.10;;
29384;SDS011;16367;48.736;9.218;2023-05-10T03:05:41;2.58;;;0.50;;
29384;SDS011;16367;48.736;9.218;2023-05-10T03:07:44;2.30;;;0.80;;
29384;SDS011;16367;48.736;9.218;2023-05-10T03:09:47;2.10;;;0.70;;
29384;SDS011;16367;48.736;9.218;2023-05-10T03:11:55;3.47;;;1.10;;
29384;SDS011;16367;48.736;9.218;2023-05-10T03:14:07;2.78;;;0.90;;
29384;SDS011;16367;48.736;9.218;2023-05-10T03:16:19;4.28;;;0.90;;
29384;SDS011;16367;48.736;9.218;2023-05-10T03:18:28;4.20;;;0.80;;
29384;SDS011;16367;48.736;9.218;2023-05-10T03:20:36;3.88;;;0.80;;
29384;SDS011;16367;48.736;9.218;2023-05-10T03:22:45;2.88;;;0.88;;
29384;SDS011;16367;48.736;9.218;2023-05-10T03:24:51;2.45;;;0.77;;
29384;SDS011;16367;48.736;9.218;2023-05-10T03:26:59;3.05;;;0.70;;
29384;SDS011;16367;48.736;9.218;2023-05-10T03:29:04;2.70;;;0.98;;
29384;SDS011;16367;48.736;9.218;2023-05-10T03:31:07;2.72;;;0.90;;
29384;SDS011;16367;48.736;9.218;2023-05-10T03:33:11;3.63;;;0.98;;
29384;SDS011;16367;48.736;9.218;2023-05-10T03:35:14;3.10;;;0.90;;
29384;SDS011;16367;48.736;9.218;2023-05-10T03:37:17;2.60;;;0.93;;
29384;SDS011;16367;48.736;9.218;2023-05-10T03:39:20;3.85;;;0.93;;
29384;SDS011;16367;48.736;9.218;2023-05-10T03:41:23;3.35;;;1.08;;
29384;SDS011;16367;48.736;9.218;2023-05-10T03:43:27;4.82;;;2.38;;
29384;SDS011;16367;48.736;9.218;2023-05-10T03:45:30;4.97;;;1.60;;
29384;SDS011;16367;48.736;9.218;2023-05-10T03:47:33;3.97;;;1.23;;
29384;SDS011;16367;48.736;9.218;2023-05-10T03:49:36;6.35;;;1.33;;
29384;SDS011;16367;48.736;9.218;2023-05-10T03:51:39;4.25;;;1.10;;
29384;SDS011;16367;48.736;9.218;2023-05-10T03:53:41;3.08;;;0.98;;
29384;SDS011;16367;48.736;9.218;2023-05-10T03:55:44;3.10;;;1.02;;
29384;SDS011;16367;48.736;9.218;2023-05-10T03:57:47;6.35;;;1.60;;
29384;SDS011;16367;48.736;9.218;2023-05-10T03:59:52;3.40;;;1.20;;
29384;SDS011;16367;48.736;9.218;2023-05-10T04:01:54;3.97;;;1.10;;
29384;SDS011;16367;48.736;9.218;2023-05-10T04:03:57;5.57;;;1.20;;
29384;SDS011;16367;48.736;9.218;2023-05-10T04:06:00;3.28;;;1.25;;
29384;SDS011;16367;48.736;9.218;2023-05-10T04:08:04;3.05;;;1.30;;
29384;SDS011;16367;48.736;9.218;2023-05-10T04:10:07;2.92;;;1.10;;
29384;SDS011;16367;48.736;9.218;2023-05-10T04:12:11;4.43;;;1.95;;
29384;SDS011;16367;48.736;9.218;2023-05-10T04:14:13;3.75;;;1.13;;
29384;SDS011;16367;48.736;9.218;2023-05-10T04:16:18;2.55;;;1.00;;
29384;SDS011;16367;48.736;9.218;2023-05-10T04:18:20;3.30;;;1.10;;
29384;SDS011;16367;48.736;9.218;2023-05-10T04:20:23;3.35;;;1.10;;
29384;SDS011;16367;48.736;9.218;2023-05-10T04:22:26;4.05;;;1.13;;
29384;SDS011;16367;48.736;9.218;2023-05-10T04:24:30;3.10;;;1.10;;
29384;SDS011;16367;48.736;9.218;2023-05-10T04:26:33;3.30;;;1.20;;
29384;SDS011;16367;48.736;9.218;2023-05-10T04:28:36;3.33;;;1.23;;
29384;SDS011;16367;48.736;9.218;2023-05-10T04:30:39;4.57;;;1.20;;
29384;SDS011;16367;48.736;9.218;2023-05-10T04:32:44;4.80;;;1.77;;
29384;SDS011;16367;48.736;9.218;2023-05-10T04:34:47;5.47;;;1.33;;
29384;SDS011;16367;48.736;9.218;2023-05-10T04:36:49;3.05;;;1.05;;
29384;SDS011;16367;48.736;9.218;2023-05-10T04:38:52;3.88;;;1.50;;
29384;SDS011;16367;48.736;9.218;2023-05-10T04:41:03;3.05;;;1.13;;
29384;SDS011;16367;48.736;9.218;2023-05-10T04:43:06;2.70;;;0.82;;
29384;SDS011;16367;48.736;9.218;2023-05-10T04:45:09;3.05;;;1.10;;
29384;SDS011;16367;48.736;9.218;2023-05-10T04:47:12;4.63;;;1.15;;
29384;SDS011;16367;48.736;9.218;2023-05-10T04:49:16;4.28;;;1.30;;
29384;SDS011;16367;48.736;9.218;2023-05-10T04:51:19;3.80;;;1.20;;
29384;SDS011;16367;48.736;9.218;2023-05-10T04:53:31;4.00;;;1.13;;
29384;SDS011;16367;48.736;9.218;2023-05-10T04:55:38;4.95;;;1.30;;
29384;SDS011;16367;48.736;9.218;2023-05-10T04:57:41;3.60;;;1.20;;
29384;SDS011;16367;48.736;9.218;2023-05-10T04:59:43;3.70;;;1.35;;
29384;SDS011;16367;48.736;9.218;2023-05-10T05:01:48;3.30;;;0.90;;
29384;SDS011;16367;48.736;9.218;2023-05-10T05:03:51;3.58;;;1.45;;
29384;SDS011;16367;48.736;9.218;2023-05-10T05:05:56;3.80;;;1.30;;
29384;SDS011;16367;48.736;9.218;2023-05-10T05:07:58;3.80;;;1.33;;
29384;SDS011;16367;48.736;9.218;2023-05-10T05:10:02;2.58;;;0.98;;
29384;SDS011;16367;48.736;9.218;2023-05-10T05:12:05;3.88;;;1.20;;
29384;SDS011;16367;48.736;9.218;2023-05-10T05:14:07;3.50;;;1.10;;
29384;SDS011;16367;48.736;9.218;2023-05-10T05:16:10;4.05;;;1.13;;
29384;SDS011;16367;48.736;9.218;2023-05-10T05:18:13;5.10;;;1.10;;
29384;SDS011;16367;48.736;9.218;2023-05-10T05:20:16;8.50;;;1.67;;
29384;SDS011;16367;48.736;9.218;2023-05-10T05:22:21;3.20;;;1.08;;
29384;SDS011;16367;48.736;9.218;2023-05-10T05:24:28;3.60;;;1.10;;
29384;SDS011;16367;48.736;9.218;2023-05-10T05:26:31;4.78;;;1.00;;
29384;SDS011;16367;48.736;9.218;2023-05-10T05:28:34;3.03;;;0.93;;
29384;SDS011;16367;48.736;9.218;2023-05-10T05:30:38;2.92;;;0.88;;
29384;SDS011;16367;48.736;9.218;2023-05-10T05:32:41;2.75;;;0.95;;
29384;SDS011;16367;48.736;9.218;2023-05-10T05:34:44;2.95;;;1.05;;
29384;SDS011;16367;48.736;9.218;2023-05-10T05:36:46;4.47;;;1.23;;
29384;SDS011;16367;48.736;9.218;2023-05-10T05:38:51;4.43;;;1.30;;
29384;SDS011;16367;48.736;9.218;2023-05-10T05:40:53;3.63;;;1.17;;
29384;SDS011;16367;48.736;9.218;2023-05-10T05:42:56;3.10;;;1.17;;
29384;SDS011;16367;48.736;9.218;2023-05-10T05:44:59;3.10;;;1.00;;
29384;SDS011;16367;48.736;9.218;2023-05-10T05:47:02;3.10;;;1.15;;
29384;SDS011;16367;48.736;9.218;2023-05-10T05:49:04;3.88;;;1.20;;
29384;SDS011;16367;48.736;9.218;2023-05-10T05:51:07;3.30;;;1.10;;
29384;SDS011;16367;48.736;9.218;2023-05-10T05:53:10;4.53;;;1.20;;
29384;SDS011;16367;48.736;9.218;2023-05-10T05:55:14;3.05;;;1.13;;
29384;SDS011;16367;48.736;9.218;2023-05-10T05:57:17;4.38;;;1.15;;
29384;SDS011;16367;48.736;9.218;2023-05-10T05:59:20;4.85;;;1.70;;
29384;SDS011;16367;48.736;9.218;2023-05-10T06:01:23;3.70;;;1.60;;
29384;SDS011;16367;48.736;9.218;2023-05-10T06:03:26;3.85;;;1.38;;
29384;SDS011;16367;48.736;9.218;2023-05-10T06:05:29;4.55;;;1.60;;
29384;SDS011;16367;48.736;9.218;2023-05-10T06:07:32;3.33;;;1.10;;
29384;SDS011;16367;48.736;9.218;2023-05-10T06:09:34;4.18;;;1.42;;
29384;SDS011;16367;48.736;9.218;2023-05-10T06:11:38;3.75;;;1.45;;
29384;SDS011;16367;48.736;9.218;2023-05-10T06:13:41;3.70;;;1.23;;
29384;SDS011;16367;48.736;9.218;2023-05-10T06:15:44;3.78;;;1.30;;
29384;SDS011;16367;48.736;9.218;2023-05-10T06:17:47;3.90;;;1.83;;
29384;SDS011;16367;48.736;9.218;2023-05-10T06:19:50;6.30;;;1.45;;
29384;SDS011;16367;48.736;9.218;2023-05-10T06:21:53;3.20;;;1.20;;
29384;SDS011;16367;48.736;9.218;2023-05-10T06:23:56;2.63;;;0.98;;
29384;SDS011;16367;48.736;9.218;2023-05-10T06:25:59;3.40;;;1.15;;
29384;SDS011;16367;48.736;9.218;2023-05-10T06:28:03;4.82;;;1.10;;
29384;SDS011;16367;48.736;9.218;2023-05-10T06:30:06;3.63;;;1.10;;
29384;SDS011;16367;48.736;9.218;2023-05-10T06:32:13;3.05;;;1.10;;
29384;SDS011;16367;48.736;9.218;2023-05-10T06:34:17;2.72;;;1.00;;
29384;SDS011;16367;48.736;9.218;2023-05-10T06:36:20;3.30;;;1.20;;
29384;SDS011;16367;48.736;9.218;2023-05-10T06:38:23;3.65;;;1.30;;
29384;SDS011;16367;48.736;9.218;2023-05-10T06:40:26;3.70;;;1.10;;
29384;SDS011;16367;48.736;9.218;2023-05-10T06:42:28;3.67;;;1.10;;
29384;SDS011;16367;48.736;9.218;2023-05-10T06:44:33;3.65;;;1.20;;
29384;SDS011;16367;48.736;9.218;2023-05-10T06:46:36;3.33;;;1.15;;
29384;SDS011;16367;48.736;9.218;2023-05-10T06:48:39;5.45;;;1.30;;
29384;SDS011;16367;48.736;9.218;2023-05-10T06:50:41;4.30;;;1.30;;
29384;SDS011;16367;48.736;9.218;2023-05-10T06:52:45;4.75;;;1.30;;
29384;SDS011;16367;48.736;9.218;2023-05-10T06:54:47;4.20;;;1.10;;
29384;SDS011;16367;48.736;9.218;2023-05-10T06:56:51;3.00;;;1.10;;
29384;SDS011;16367;48.736;9.218;2023-05-10T06:58:54;3.80;;;1.23;;
29384;SDS011;16367;48.736;9.218;2023-05-10T07:01:02;3.80;;;1.23;;
29384;SDS011;16367;48.736;9.218;2023-05-10T07:03:06;4.18;;;1.40;;
29384;SDS011;16367;48.736;9.218;2023-05-10T07:05:09;3.00;;;1.15;;
29384;SDS011;16367;48.736;9.218;2023-05-10T07:07:12;6.03;;;1.40;;
29384;SDS011;16367;48.736;9.218;2023-05-10T07:09:15;4.03;;;1.40;;
29384;SDS011;16367;48.736;9.218;2023-05-10T07:11:18;3.47;;;1.38;;
29384;SDS011;16367;48.736;9.218;2023-05-10T07:13:21;4.72;;;1.50;;
29384;SDS011;16367;48.736;9.218;2023-05-10T07:15:24;4.68;;;1.35;;
29384;SDS011;16367;48.736;9.218;2023-05-10T07:17:28;3.40;;;1.30;;
29384;SDS011;16367;48.736;9.218;2023-05-10T07:19:31;4.50;;;1.75;;
29384;SDS011;16367;48.736;9.218;2023-05-10T07:21:34;5.30;;;1.35;;
29384;SDS011;16367;48.736;9.218;2023-05-10T07:23:38;3.97;;;1.17;;
29384;SDS011;16367;48.736;9.218;2023-05-10T07:25:44;4.32;;;1.35;;
29384;SDS011;16367;48.736;9.218;2023-05-10T07:27:48;5.03;;;1.70;;
29384;SDS011;16367;48.736;9.218;2023-05-10T07:29:52;4.00;;;1.15;;
29384;SDS011;16367;48.736;9.218;2023-05-10T07:31:55;4.43;;;1.95;;
29384;SDS011;16367;48.736;9.218;2023-05-10T07:34:00;3.58;;;1.40;;
29384;SDS011;16367;48.736;9.218;2023-05-10T07:36:03;4.03;;;1.20;;
29384;SDS011;16367;48.736;9.218;2023-05-10T07:38:06;4.18;;;1.50;;
29384;SDS011;16367;48.736;9.218;2023-05-10T07:40:09;3.72;;;1.40;;
29384;SDS011;16367;48.736;9.218;2023-05-10T07:42:12;4.65;;;1.25;;
29384;SDS011;16367;48.736;9.218;2023-05-10T07:44:15;5.10;;;1.38;;
29384;SDS011;16367;48.736;9.218;2023-05-10T07:46:19;4.32;;;1.25;;
29384;SDS011;16367;48.736;9.218;2023-05-10T07:48:22;3.63;;;1.48;;
29384;SDS011;16367;48.736;9.218;2023-05-10T07:50:26;3.17;;;1.10;;
29384;SDS011;16367;48.736;9.218;2023-05-10T07:52:29;3.25;;;1.30;;
29384;SDS011;16367;48.736;9.218;2023-05-10T07:54:32;5.07;;;1.17;;
29384;SDS011;16367;48.736;9.218;2023-05-10T07:56:35;4.28;;;1.45;;
29384;SDS011;16367;48.736;9.218;2023-05-10T07:58:38;3.20;;;1.10;;
29384;SDS011;16367;48.736;9.218;2023-05-10T08:00:41;3.72;;;1.17;;
29384;SDS011;16367;48.736;9.218;2023-05-10T08:02:44;3.53;;;1.27;;
29384;SDS011;16367;48.736;9.218;2023-05-10T08:04:47;4.43;;;1.30;;
29384;SDS011;16367;48.736;9.218;2023-05-10T08:06:51;3.85;;;1.08;;
29384;SDS011;16367;48.736;9.218;2023-05-10T08:08:54;2.97;;;1.10;;
29384;SDS011;16367;48.736;9.218;2023-05-10T08:10:57;3.03;;;1.05;;
29384;SDS011;16367;48.736;9.218;2023-05-10T08:12:59;3.08;;;1.02;;
29384;SDS011;16367;48.736;9.218;2023-05-10T08:15:02;3.50;;;1.10;;
29384;SDS011;16367;48.736;9.218;2023-05-10T08:17:06;3.50;;;1.15;;
29384;SDS011;16367;48.736;9.218;2023-05-10T08:19:09;2.35;;;0.88;;
29384;SDS011;16367;48.736;9.218;2023-05-10T08:21:12;4.03;;;0.88;;
29384;SDS011;16367;48.736;9.218;2023-05-10T08:23:16;3.03;;;0.80;;
29384;SDS011;16367;48.736;9.218;2023-05-10T08:25:19;2.85;;;0.90;;
29384;SDS011;16367;48.736;9.218;2023-05-10T08:27:21;3.92;;;1.08;;
29384;SDS011;16367;48.736;9.218;2023-05-10T08:29:24;2.75;;;0.90;;
29384;SDS011;16367;48.736;9.218;2023-05-10T08:31:30;3.13;;;0.70;;
29384;SDS011;16367;48.736;9.218;2023-05-10T08:33:33;3.25;;;0.90;;
29384;SDS011;16367;48.736;9.218;2023-05-10T08:35:36;2.75;;;1.15;;
29384;SDS011;16367;48.736;9.218;2023-05-10T08:37:39;2.92;;;0.90;;
29384;SDS011;16367;48.736;9.218;2023-05-10T08:39:44;2.45;;;0.70;;
29384;SDS011;16367;48.736;9.218;2023-05-10T08:41:49;2.15;;;0.75;;
29384;SDS011;16367;48.736;9.218;2023-05-10T08:43:54;3.63;;;0.85;;
29384;SDS011;16367;48.736;9.218;2023-05-10T08:45:58;3.03;;;0.93;;
29384;SDS011;16367;48.736;9.218;2023-05-10T08:48:03;3.00;;;1.00;;
29384;SDS011;16367;48.736;9.218;2023-05-10T08:50:08;2.40;;;0.77;;
29384;SDS011;16367;48.736;9.218;2023-05-10T08:52:12;2.45;;;0.70;;
29384;SDS011;16367;48.736;9.218;2023-05-10T08:54:17;3.03;;;0.82;;
29384;SDS011;16367;48.736;9.218;2023-05-10T08:56:22;2.63;;;0.60;;
29384;SDS011;16367;48.736;9.218;2023-05-10T08:58:25;2.22;;;0.70;;
29384;SDS011;16367;48.736;9.218;2023-05-10T09:00:28;3.03;;;0.88;;
29384;SDS011;16367;48.736;9.218;2023-05-10T09:02:32;2.78;;;0.80;;
29384;SDS011;16367;48.736;9.218;2023-05-10T09:04:36;2.28;;;0.55;;
29384;SDS011;16367;48.736;9.218;2023-05-10T09:06:39;4.38;;;0.80;;
29384;SDS011;16367;48.736;9.218;2023-05-10T09:08:42;2.58;;;0.73;;
29384;SDS011;16367;48.736;9.218;2023-05-10T09:10:45;2.28;;;0.75;;
29384;SDS011;16367;48.736;9.218;2023-05-10T09:12:51;3.65;;;1.00;;
29384;SDS011;16367;48.736;9.218;2023-05-10T09:14:59;3.35;;;0.93;;
29384;SDS011;16367;48.736;9.218;2023-05-10T09:17:02;2.60;;;0.90;;
29384;SDS011;16367;48.736;9.218;2023-05-10T09:19:06;4.53;;;0.98;;
29384;SDS011;16367;48.736;9.218;2023-05-10T09:21:10;2.35;;;0.70;;
29384;SDS011;16367;48.736;9.218;2023-05-10T09:23:13;2.67;;;0.80;;
29384;SDS011;16367;48.736;9.218;2023-05-10T09:25:16;2.38;;;0.63;;
29384;SDS011;16367;48.736;9.218;2023-05-10T09:27:26;5.20;;;1.60;;
29384;SDS011;16367;48.736;9.218;2023-05-10T09:29:39;3.00;;;0.77;;
29384;SDS011;16367;48.736;9.218;2023-05-10T09:31:43;2.28;;;0.73;;
29384;SDS011;16367;48.736;9.218;2023-05-10T09:33:47;2.08;;;0.77;;
29384;SDS011;16367;48.736;9.218;2023-05-10T09:35:51;2.92;;;0.90;;
29384;SDS011;16367;48.736;9.218;2023-05-10T09:37:56;3.30;;;0.85;;
29384;SDS011;16367;48.736;9.218;2023-05-10T09:39:59;4.90;;;1.00;;
29384;SDS011;16367;48.736;9.218;2023-05-10T09:42:03;2.50;;;0.80;;
29384;SDS011;16367;48.736;9.218;2023-05-10T09:44:07;1.70;;;0.70;;
29384;SDS011;16367;48.736;9.218;2023-05-10T09:46:11;2.63;;;0.75;;
29384;SDS011;16367;48.736;9.218;2023-05-10T09:48:14;4.13;;;0.82;;
29384;SDS011;16367;48.736;9.218;2023-05-10T09:50:16;1.65;;;0.70;;
29384;SDS011;16367;48.736;9.218;2023-05-10T09:52:19;1.83;;;0.60;;
29384;SDS011;16367;48.736;9.218;2023-05-10T09:54:22;5.57;;;0.93;;
29384;SDS011;16367;48.736;9.218;2023-05-10T09:56:32;3.65;;;0.73;;
29384;SDS011;16367;48.736;9.218;2023-05-10T09:58:36;2.63;;;1.00;;
29384;SDS011;16367;48.736;9.218;2023-05-10T10:00:40;3.28;;;0.73;;
29384;SDS011;16367;48.736;9.218;2023-05-10T10:02:46;2.85;;;0.77;;
29384;SDS011;16367;48.736;9.218;2023-05-10T10:04:50;2.55;;;0.60;;
29384;SDS011;16367;48.736;9.218;2023-05-10T10:07:00;1.60;;;0.50;;
29384;SDS011;16367;48.736;9.218;2023-05-10T10:09:05;2.78;;;0.60;;
29384;SDS011;16367;48.736;9.218;2023-05-10T10:11:08;1.67;;;0.70;;
29384;SDS011;16367;48.736;9.218;2023-05-10T10:13:11;1.92;;;0.68;;
29384;SDS011;16367;48.736;9.218;2023-05-10T10:15:14;2.10;;;0.50;;
29384;SDS011;16367;48.736;9.218;2023-05-10T10:17:18;2.03;;;0.50;;
29384;SDS011;16367;48.736;9.218;2023-05-10T10:19:23;1.83;;;0.60;;
29384;SDS011;16367;48.736;9.218;2023-05-10T10:21:26;2.17;;;0.60;;
29384;SDS011;16367;48.736;9.218;2023-05-10T10:23:29;3.33;;;0.50;;
29384;SDS011;16367;48.736;9.218;2023-05-10T10:25:31;1.80;;;0.60;;
29384;SDS011;16367;48.736;9.218;2023-05-10T10:27:37;2.53;;;0.43;;
29384;SDS011;16367;48.736;9.218;2023-05-10T10:29:49;1.63;;;0.40;;
29384;SDS011;16367;48.736;9.218;2023-05-10T10:32:03;1.98;;;0.60;;
29384;SDS011;16367;48.736;9.218;2023-05-10T10:34:17;1.33;;;0.40;;
29384;SDS011;16367;48.736;9.218;2023-05-10T10:36:28;1.55;;;0.55;;
29384;SDS011;16367;48.736;9.218;2023-05-10T10:41:02;1.45;;;0.52;;
29384;SDS011;16367;48.736;9.218;2023-05-10T10:43:23;2.80;;;0.70;;
29384;SDS011;16367;48.736;9.218;2023-05-10T10:45:27;1.85;;;0.65;;
29384;SDS011;16367;48.736;9.218;2023-05-10T10:47:29;2.42;;;0.70;;
29384;SDS011;16367;48.736;9.218;2023-05-10T10:49:37;1.75;;;0.52;;
29384;SDS011;16367;48.736;9.218;2023-05-10T10:54:26;2.13;;;0.73;;
29384;SDS011;16367;48.736;9.218;2023-05-10T10:56:30;2.78;;;0.70;;
29384;SDS011;16367;48.736;9.218;2023-05-10T10:58:35;1.75;;;0.50;;
29384;SDS011;16367;48.736;9.218;2023-05-10T11:00:39;2.90;;;0.77;;
29384;SDS011;16367;48.736;9.218;2023-05-10T11:02:45;2.28;;;0.52;;
29384;SDS011;16367;48.736;9.218;2023-05-10T11:04:50;1.67;;;0.60;;
29384;SDS011;16367;48.736;9.218;2023-05-10T11:06:53;2.58;;;0.57;;
29384;SDS011;16367;48.736;9.218;2023-05-10T11:09:20;2.08;;;0.73;;
29384;SDS011;16367;48.736;9.218;2023-05-10T11:11:27;2.85;;;0.70;;
29384;SDS011;16367;48.736;9.218;2023-05-10T11:13:32;2.05;;;0.57;;
29384;SDS011;16367;48.736;9.218;2023-05-10T11:15:36;0.80;;;0.40;;
29384;SDS011;16367;48.736;9.218;2023-05-10T11:17:40;1.58;;;0.60;;
29384;SDS011;16367;48.736;9.218;2023-05-10T11:22:12;2.55;;;0.60;;
29384;SDS011;16367;48.736;9.218;2023-05-10T11:24:18;2.83;;;0.52;;
29384;SDS011;16367;48.736;9.218;2023-05-10T11:26:22;3.17;;;0.60;;
29384;SDS011;16367;48.736;9.218;2023-05-10T11:28:26;2.17;;;0.63;;
29384;SDS011;16367;48.736;9.218;2023-05-10T11:30:29;2.22;;;0.80;;
29384;SDS011;16367;48.736;9.218;2023-05-10T11:32:33;1.70;;;0.57;;
29384;SDS011;16367;48.736;9.218;2023-05-10T11:34:38;3.28;;;0.82;;
29384;SDS011;16367;48.736;9.218;2023-05-10T11:36:41;2.10;;;0.50;;
29384;SDS011;16367;48.736;9.218;2023-05-10T11:38:43;2.30;;;0.70;;
29384;SDS011;16367;48.736;9.218;2023-05-10T11:40:49;3.40;;;0.70;;
29384;SDS011;16367;48.736;9.218;2023-05-10T11:42:55;3.08;;;0.80;;
29384;SDS011;16367;48.736;9.218;2023-05-10T11:44:58;2.10;;;0.57;;
29384;SDS011;16367;48.736;9.218;2023-05-10T11:47:03;5.30;;;0.80;;
29384;SDS011;16367;48.736;9.218;2023-05-10T11:49:06;3.25;;;0.70;;
29384;SDS011;16367;48.736;9.218;2023-05-10T11:51:10;1.70;;;0.60;;
29384;SDS011;16367;48.736;9.218;2023-05-10T11:53:13;1.85;;;0.63;;
29384;SDS011;16367;48.736;9.218;2023-05-10T11:55:16;1.67;;;0.50;;
29384;SDS011;16367;48.736;9.218;2023-05-10T11:57:20;1.92;;;0.70;;
29384;SDS011;16367;48.736;9.218;2023-05-10T11:59:28;4.40;;;0.80;;
29384;SDS011;16367;48.736;9.218;2023-05-10T12:01:31;4.05;;;1.02;;
29384;SDS011;16367;48.736;9.218;2023-05-10T12:03:34;3.85;;;1.02;;
29384;SDS011;16367;48.736;9.218;2023-05-10T12:05:37;2.75;;;0.70;;
29384;SDS011;16367;48.736;9.218;2023-05-10T12:07:43;3.15;;;0.80;;
29384;SDS011;16367;48.736;9.218;2023-05-10T12:12:07;2.15;;;0.63;;
29384;SDS011;16367;48.736;9.218;2023-05-10T12:14:11;3.70;;;0.90;;
29384;SDS011;16367;48.736;9.218;2023-05-10T12:16:15;2.53;;;0.80;;
29384;SDS011;16367;48.736;9.218;2023-05-10T12:18:22;2.55;;;0.90;;
29384;SDS011;16367;48.736;9.218;2023-05-10T12:20:27;2.65;;;0.70;;
29384;SDS011;16367;48.736;9.218;2023-05-10T12:22:33;3.78;;;1.10;;
29384;SDS011;16367;48.736;9.218;2023-05-10T12:24:36;2.58;;;0.90;;
29384;SDS011;16367;48.736;9.218;2023-05-10T12:26:40;3.08;;;0.90;;
29384;SDS011;16367;48.736;9.218;2023-05-10T12:28:43;1.90;;;0.68;;
29384;SDS011;16367;48.736;9.218;2023-05-10T12:30:47;2.22;;;0.80;;
29384;SDS011;16367;48.736;9.218;2023-05-10T12:32:50;1.80;;;0.80;;
29384;SDS011;16367;48.736;9.218;2023-05-10T12:34:54;2.15;;;0.70;;
29384;SDS011;16367;48.736;9.218;2023-05-10T12:36:57;2.60;;;0.80;;
29384;SDS011;16367;48.736;9.218;2023-05-10T12:39:02;2.88;;;0.80;;
29384;SDS011;16367;48.736;9.218;2023-05-10T12:41:06;2.50;;;0.80;;
29384;SDS011;16367;48.736;9.218;2023-05-10T12:43:10;4.20;;;0.77;;
29384;SDS011;16367;48.736;9.218;2023-05-10T12:45:13;2.72;;;0.70;;
29384;SDS011;16367;48.736;9.218;2023-05-10T12:47:17;2.45;;;0.80;;
29384;SDS011;16367;48.736;9.218;2023-05-10T12:49:20;2.55;;;0.80;;